sensor_id;sensor_type;location;lat;lon;timestamp;P1;durP1;ratioP1;P2;durP2;ratioP2
20022;SDS011;10172;42.054;24.546;2022-08-03T00:01:39;2.22;;;1.25;;
20022;SDS011;10172;42.054;24.546;2022-08-03T00:04:05;1.70;;;1.30;;
20022;SDS011;10172;42.054;24.546;2022-08-03T00:06:32;1.70;;;1.20;;
20022;SDS011;10172;42.054;24.546;2022-08-03T00:08:58;2.25;;;1.00;;
20022;SDS011;10172;42.054;24.546;2022-08-03T00:11:24;2.28;;;1.20;;
20022;SDS011;10172;42.054;24.546;2022-08-03T00:13:50;1.58;;;1.23;;
20022;SDS011;10172;42.054;24.546;2022-08-03T00:16:15;1.83;;;1.40;;
20022;SDS011;10172;42.054;24.546;2022-08-03T00:18:41;1.50;;;1.20;;
20022;SDS011;10172;42.054;24.546;2022-08-03T00:21:06;1.75;;;1.13;;
20022;SDS011;10172;42.054;24.546;2022-08-03T00:23:32;1.52;;;1.23;;
20022;SDS011;10172;42.054;24.546;2022-08-03T00:25:58;1.92;;;1.25;;
20022;SDS011;10172;42.054;24.546;2022-08-03T00:28:23;2.47;;;1.33;;
20022;SDS011;10172;42.054;24.546;2022-08-03T00:30:49;2.30;;;1.60;;
20022;SDS011;10172;42.054;24.546;2022-08-03T00:33:14;2.35;;;1.40;;
20022;SDS011;10172;42.054;24.546;2022-08-03T00:35:40;1.52;;;1.20;;
20022;SDS011;10172;42.054;24.546;2022-08-03T00:38:05;1.63;;;1.20;;
20022;SDS011;10172;42.054;24.546;2022-08-03T00:40:31;1.95;;;1.48;;
20022;SDS011;10172;42.054;24.546;2022-08-03T00:42:57;4.03;;;1.35;;
20022;SDS011;10172;42.054;24.546;2022-08-03T00:45:25;1.63;;;1.20;;
20022;SDS011;10172;42.054;24.546;2022-08-03T00:47:54;2.95;;;1.35;;
20022;SDS011;10172;42.054;24.546;2022-08-03T00:50:21;1.70;;;1.20;;
20022;SDS011;10172;42.054;24.546;2022-08-03T00:52:48;2.17;;;1.17;;
20022;SDS011;10172;42.054;24.546;2022-08-03T00:55:15;2.05;;;1.20;;
20022;SDS011;10172;42.054;24.546;2022-08-03T00:57:42;1.20;;;1.10;;
20022;SDS011;10172;42.054;24.546;2022-08-03T01:00:08;2.22;;;1.42;;
20022;SDS011;10172;42.054;24.546;2022-08-03T01:02:35;2.25;;;1.45;;
20022;SDS011;10172;42.054;24.546;2022-08-03T01:05:02;2.58;;;1.20;;
20022;SDS011;10172;42.054;24.546;2022-08-03T01:10:31;1.75;;;1.30;;
20022;SDS011;10172;42.054;24.546;2022-08-03T01:28:19;2.95;;;1.42;;
20022;SDS011;10172;42.054;24.546;2022-08-03T01:30:39;1.50;;;1.40;;
20022;SDS011;10172;42.054;24.546;2022-08-03T01:33:10;2.35;;;1.52;;
20022;SDS011;10172;42.054;24.546;2022-08-03T01:35:47;1.45;;;1.10;;
20022;SDS011;10172;42.054;24.546;2022-08-03T01:38:23;1.75;;;1.27;;
20022;SDS011;10172;42.054;24.546;2022-08-03T01:40:51;1.50;;;1.27;;
20022;SDS011;10172;42.054;24.546;2022-08-03T01:43:18;1.40;;;1.00;;
20022;SDS011;10172;42.054;24.546;2022-08-03T01:45:47;2.55;;;1.42;;
20022;SDS011;10172;42.054;24.546;2022-08-03T01:48:14;2.97;;;1.25;;
20022;SDS011;10172;42.054;24.546;2022-08-03T01:50:41;2.33;;;1.45;;
20022;SDS011;10172;42.054;24.546;2022-08-03T01:53:09;3.05;;;1.35;;
20022;SDS011;10172;42.054;24.546;2022-08-03T01:55:38;2.00;;;1.40;;
20022;SDS011;10172;42.054;24.546;2022-08-03T01:58:05;1.90;;;1.40;;
20022;SDS011;10172;42.054;24.546;2022-08-03T02:00:35;2.35;;;1.20;;
20022;SDS011;10172;42.054;24.546;2022-08-03T02:03:05;1.75;;;1.30;;
20022;SDS011;10172;42.054;24.546;2022-08-03T02:05:32;1.67;;;1.25;;
20022;SDS011;10172;42.054;24.546;2022-08-03T02:07:59;1.58;;;1.35;;
20022;SDS011;10172;42.054;24.546;2022-08-03T02:10:27;2.05;;;1.42;;
20022;SDS011;10172;42.054;24.546;2022-08-03T02:12:55;2.00;;;1.35;;
20022;SDS011;10172;42.054;24.546;2022-08-03T02:15:23;1.55;;;1.30;;
20022;SDS011;10172;42.054;24.546;2022-08-03T02:17:49;1.60;;;1.50;;
20022;SDS011;10172;42.054;24.546;2022-08-03T02:20:15;2.13;;;1.20;;
20022;SDS011;10172;42.054;24.546;2022-08-03T02:22:42;1.60;;;1.25;;
20022;SDS011;10172;42.054;24.546;2022-08-03T02:25:09;4.40;;;1.38;;
20022;SDS011;10172;42.054;24.546;2022-08-03T02:27:37;5.03;;;1.35;;
20022;SDS011;10172;42.054;24.546;2022-08-03T02:30:07;2.90;;;1.45;;
20022;SDS011;10172;42.054;24.546;2022-08-03T02:32:35;3.10;;;1.70;;
20022;SDS011;10172;42.054;24.546;2022-08-03T02:35:04;1.67;;;1.13;;
20022;SDS011;10172;42.054;24.546;2022-08-03T02:37:34;2.42;;;1.50;;
20022;SDS011;10172;42.054;24.546;2022-08-03T02:40:05;2.42;;;1.48;;
20022;SDS011;10172;42.054;24.546;2022-08-03T02:42:34;4.78;;;1.48;;
20022;SDS011;10172;42.054;24.546;2022-08-03T02:45:02;2.75;;;1.52;;
20022;SDS011;10172;42.054;24.546;2022-08-03T02:47:30;3.30;;;1.27;;
20022;SDS011;10172;42.054;24.546;2022-08-03T02:49:57;2.78;;;1.35;;
20022;SDS011;10172;42.054;24.546;2022-08-03T02:52:25;3.40;;;1.20;;
20022;SDS011;10172;42.054;24.546;2022-08-03T02:54:54;2.00;;;1.23;;
20022;SDS011;10172;42.054;24.546;2022-08-03T02:57:21;3.90;;;1.70;;
20022;SDS011;10172;42.054;24.546;2022-08-03T02:59:49;3.67;;;1.17;;
20022;SDS011;10172;42.054;24.546;2022-08-03T03:02:17;2.65;;;1.30;;
20022;SDS011;10172;42.054;24.546;2022-08-03T03:04:44;2.17;;;1.30;;
20022;SDS011;10172;42.054;24.546;2022-08-03T03:07:13;2.50;;;1.50;;
20022;SDS011;10172;42.054;24.546;2022-08-03T03:09:39;1.77;;;1.40;;
20022;SDS011;10172;42.054;24.546;2022-08-03T03:12:06;4.22;;;1.40;;
20022;SDS011;10172;42.054;24.546;2022-08-03T03:14:34;1.65;;;1.27;;
20022;SDS011;10172;42.054;24.546;2022-08-03T03:17:01;3.10;;;1.27;;
20022;SDS011;10172;42.054;24.546;2022-08-03T03:19:27;3.88;;;1.58;;
20022;SDS011;10172;42.054;24.546;2022-08-03T03:21:54;1.92;;;1.58;;
20022;SDS011;10172;42.054;24.546;2022-08-03T03:24:22;2.25;;;1.30;;
20022;SDS011;10172;42.054;24.546;2022-08-03T03:26:49;3.90;;;1.20;;
20022;SDS011;10172;42.054;24.546;2022-08-03T03:29:14;1.77;;;1.30;;
20022;SDS011;10172;42.054;24.546;2022-08-03T03:31:40;2.03;;;1.30;;
20022;SDS011;10172;42.054;24.546;2022-08-03T03:34:06;1.55;;;1.35;;
20022;SDS011;10172;42.054;24.546;2022-08-03T03:36:32;2.10;;;1.30;;
20022;SDS011;10172;42.054;24.546;2022-08-03T03:38:57;2.30;;;1.20;;
20022;SDS011;10172;42.054;24.546;2022-08-03T03:41:23;2.13;;;1.20;;
20022;SDS011;10172;42.054;24.546;2022-08-03T03:43:49;3.10;;;1.58;;
20022;SDS011;10172;42.054;24.546;2022-08-03T03:46:14;6.40;;;1.60;;
20022;SDS011;10172;42.054;24.546;2022-08-03T03:48:40;1.88;;;1.38;;
20022;SDS011;10172;42.054;24.546;2022-08-03T03:51:05;1.80;;;1.50;;
20022;SDS011;10172;42.054;24.546;2022-08-03T03:53:31;3.10;;;1.70;;
20022;SDS011;10172;42.054;24.546;2022-08-03T03:55:56;3.05;;;1.50;;
20022;SDS011;10172;42.054;24.546;2022-08-03T03:58:22;4.00;;;1.60;;
20022;SDS011;10172;42.054;24.546;2022-08-03T04:00:48;2.00;;;1.50;;
20022;SDS011;10172;42.054;24.546;2022-08-03T04:03:14;1.80;;;1.50;;
20022;SDS011;10172;42.054;24.546;2022-08-03T04:05:39;2.88;;;1.50;;
20022;SDS011;10172;42.054;24.546;2022-08-03T04:08:23;2.78;;;1.63;;
20022;SDS011;10172;42.054;24.546;2022-08-03T04:11:13;3.92;;;1.67;;
20022;SDS011;10172;42.054;24.546;2022-08-03T04:16:25;1.65;;;1.33;;
20022;SDS011;10172;42.054;24.546;2022-08-03T04:18:54;1.48;;;1.25;;
20022;SDS011;10172;42.054;24.546;2022-08-03T04:21:24;2.10;;;1.40;;
20022;SDS011;10172;42.054;24.546;2022-08-03T04:23:54;2.63;;;1.70;;
20022;SDS011;10172;42.054;24.546;2022-08-03T04:26:23;1.90;;;1.20;;
20022;SDS011;10172;42.054;24.546;2022-08-03T04:28:53;8.07;;;2.00;;
20022;SDS011;10172;42.054;24.546;2022-08-03T04:31:20;1.95;;;1.40;;
20022;SDS011;10172;42.054;24.546;2022-08-03T04:33:48;3.60;;;1.88;;
20022;SDS011;10172;42.054;24.546;2022-08-03T04:36:16;2.65;;;1.60;;
20022;SDS011;10172;42.054;24.546;2022-08-03T04:38:54;2.65;;;1.73;;
20022;SDS011;10172;42.054;24.546;2022-08-03T04:41:27;3.08;;;1.50;;
20022;SDS011;10172;42.054;24.546;2022-08-03T04:43:55;5.00;;;1.77;;
20022;SDS011;10172;42.054;24.546;2022-08-03T04:46:25;2.10;;;1.30;;
20022;SDS011;10172;42.054;24.546;2022-08-03T04:48:53;2.33;;;1.40;;
20022;SDS011;10172;42.054;24.546;2022-08-03T04:51:19;2.25;;;1.60;;
20022;SDS011;10172;42.054;24.546;2022-08-03T04:53:45;4.25;;;1.70;;
20022;SDS011;10172;42.054;24.546;2022-08-03T04:56:11;3.47;;;2.10;;
20022;SDS011;10172;42.054;24.546;2022-08-03T04:58:36;3.63;;;1.70;;
20022;SDS011;10172;42.054;24.546;2022-08-03T05:01:02;5.15;;;2.03;;
20022;SDS011;10172;42.054;24.546;2022-08-03T05:03:27;2.78;;;1.80;;
20022;SDS011;10172;42.054;24.546;2022-08-03T05:05:53;3.92;;;1.60;;
20022;SDS011;10172;42.054;24.546;2022-08-03T05:08:19;5.55;;;1.73;;
20022;SDS011;10172;42.054;24.546;2022-08-03T05:10:45;2.58;;;1.77;;
20022;SDS011;10172;42.054;24.546;2022-08-03T05:13:10;4.60;;;1.60;;
20022;SDS011;10172;42.054;24.546;2022-08-03T05:15:37;7.20;;;1.80;;
20022;SDS011;10172;42.054;24.546;2022-08-03T05:18:03;4.88;;;1.85;;
20022;SDS011;10172;42.054;24.546;2022-08-03T05:20:29;3.63;;;1.73;;
20022;SDS011;10172;42.054;24.546;2022-08-03T05:22:55;4.70;;;1.90;;
20022;SDS011;10172;42.054;24.546;2022-08-03T05:25:21;3.20;;;2.00;;
20022;SDS011;10172;42.054;24.546;2022-08-03T05:27:46;3.42;;;2.00;;
20022;SDS011;10172;42.054;24.546;2022-08-03T05:30:12;3.90;;;2.25;;
20022;SDS011;10172;42.054;24.546;2022-08-03T05:32:37;2.00;;;1.60;;
20022;SDS011;10172;42.054;24.546;2022-08-03T05:35:03;6.82;;;2.40;;
20022;SDS011;10172;42.054;24.546;2022-08-03T05:37:28;16.13;;;2.80;;
20022;SDS011;10172;42.054;24.546;2022-08-03T05:39:54;4.35;;;1.92;;
20022;SDS011;10172;42.054;24.546;2022-08-03T05:42:19;5.95;;;2.10;;
20022;SDS011;10172;42.054;24.546;2022-08-03T05:44:45;2.58;;;1.92;;
20022;SDS011;10172;42.054;24.546;2022-08-03T05:47:10;4.35;;;2.00;;
20022;SDS011;10172;42.054;24.546;2022-08-03T05:49:35;2.28;;;1.90;;
20022;SDS011;10172;42.054;24.546;2022-08-03T05:52:01;4.97;;;1.95;;
20022;SDS011;10172;42.054;24.546;2022-08-03T05:54:27;2.35;;;1.77;;
20022;SDS011;10172;42.054;24.546;2022-08-03T05:56:52;3.17;;;2.20;;
20022;SDS011;10172;42.054;24.546;2022-08-03T05:59:18;3.45;;;1.88;;
20022;SDS011;10172;42.054;24.546;2022-08-03T06:01:43;2.95;;;1.73;;
20022;SDS011;10172;42.054;24.546;2022-08-03T06:04:09;4.82;;;1.83;;
20022;SDS011;10172;42.054;24.546;2022-08-03T06:06:34;3.10;;;1.85;;
20022;SDS011;10172;42.054;24.546;2022-08-03T06:09:00;5.13;;;1.80;;
20022;SDS011;10172;42.054;24.546;2022-08-03T06:11:25;6.70;;;1.67;;
20022;SDS011;10172;42.054;24.546;2022-08-03T06:13:51;5.13;;;2.15;;
20022;SDS011;10172;42.054;24.546;2022-08-03T06:16:16;3.17;;;1.85;;
20022;SDS011;10172;42.054;24.546;2022-08-03T06:18:42;4.05;;;2.00;;
20022;SDS011;10172;42.054;24.546;2022-08-03T06:21:07;4.78;;;1.98;;
20022;SDS011;10172;42.054;24.546;2022-08-03T06:23:34;5.38;;;1.77;;
20022;SDS011;10172;42.054;24.546;2022-08-03T06:26:00;2.35;;;1.65;;
20022;SDS011;10172;42.054;24.546;2022-08-03T06:28:26;3.13;;;1.70;;
20022;SDS011;10172;42.054;24.546;2022-08-03T06:30:52;2.95;;;1.67;;
20022;SDS011;10172;42.054;24.546;2022-08-03T06:33:18;2.35;;;1.55;;
20022;SDS011;10172;42.054;24.546;2022-08-03T06:35:43;3.28;;;1.60;;
20022;SDS011;10172;42.054;24.546;2022-08-03T06:38:09;4.57;;;1.75;;
20022;SDS011;10172;42.054;24.546;2022-08-03T06:40:35;3.72;;;1.58;;
20022;SDS011;10172;42.054;24.546;2022-08-03T06:43:04;2.88;;;1.80;;
20022;SDS011;10172;42.054;24.546;2022-08-03T06:45:30;4.72;;;1.92;;
20022;SDS011;10172;42.054;24.546;2022-08-03T06:50:30;2.65;;;1.63;;
20022;SDS011;10172;42.054;24.546;2022-08-03T06:52:56;2.22;;;1.38;;
20022;SDS011;10172;42.054;24.546;2022-08-03T06:55:22;3.38;;;1.67;;
20022;SDS011;10172;42.054;24.546;2022-08-03T06:57:48;3.60;;;1.55;;
20022;SDS011;10172;42.054;24.546;2022-08-03T07:00:14;4.53;;;1.40;;
20022;SDS011;10172;42.054;24.546;2022-08-03T07:02:40;1.65;;;1.48;;
20022;SDS011;10172;42.054;24.546;2022-08-03T07:05:06;2.40;;;1.45;;
20022;SDS011;10172;42.054;24.546;2022-08-03T07:07:33;3.25;;;1.60;;
20022;SDS011;10172;42.054;24.546;2022-08-03T07:09:59;1.90;;;1.65;;
20022;SDS011;10172;42.054;24.546;2022-08-03T07:12:25;1.50;;;1.35;;
20022;SDS011;10172;42.054;24.546;2022-08-03T07:14:51;3.22;;;1.30;;
20022;SDS011;10172;42.054;24.546;2022-08-03T07:17:17;2.80;;;1.77;;
20022;SDS011;10172;42.054;24.546;2022-08-03T07:19:42;2.05;;;1.33;;
20022;SDS011;10172;42.054;24.546;2022-08-03T07:22:08;3.05;;;1.60;;
20022;SDS011;10172;42.054;24.546;2022-08-03T07:24:35;2.30;;;1.70;;
20022;SDS011;10172;42.054;24.546;2022-08-03T07:27:00;4.82;;;1.58;;
20022;SDS011;10172;42.054;24.546;2022-08-03T07:29:26;2.72;;;2.05;;
20022;SDS011;10172;42.054;24.546;2022-08-03T07:31:52;3.20;;;1.50;;
20022;SDS011;10172;42.054;24.546;2022-08-03T07:34:17;3.97;;;1.65;;
20022;SDS011;10172;42.054;24.546;2022-08-03T07:36:42;6.00;;;1.85;;
20022;SDS011;10172;42.054;24.546;2022-08-03T07:39:08;2.10;;;1.70;;
20022;SDS011;10172;42.054;24.546;2022-08-03T07:41:33;2.03;;;1.52;;
20022;SDS011;10172;42.054;24.546;2022-08-03T07:43:59;4.55;;;1.90;;
20022;SDS011;10172;42.054;24.546;2022-08-03T07:46:24;3.40;;;1.42;;
20022;SDS011;10172;42.054;24.546;2022-08-03T07:48:50;3.83;;;1.45;;
20022;SDS011;10172;42.054;24.546;2022-08-03T07:51:15;2.83;;;1.65;;
20022;SDS011;10172;42.054;24.546;2022-08-03T07:53:40;2.63;;;1.40;;
20022;SDS011;10172;42.054;24.546;2022-08-03T07:56:06;2.92;;;1.42;;
20022;SDS011;10172;42.054;24.546;2022-08-03T07:58:31;3.90;;;1.42;;
20022;SDS011;10172;42.054;24.546;2022-08-03T08:00:59;2.40;;;1.60;;
20022;SDS011;10172;42.054;24.546;2022-08-03T08:03:25;2.10;;;1.50;;
20022;SDS011;10172;42.054;24.546;2022-08-03T08:05:52;3.97;;;1.70;;
20022;SDS011;10172;42.054;24.546;2022-08-03T08:08:18;2.92;;;1.60;;
20022;SDS011;10172;42.054;24.546;2022-08-03T08:10:45;2.53;;;1.48;;
20022;SDS011;10172;42.054;24.546;2022-08-03T08:13:11;4.03;;;1.58;;
20022;SDS011;10172;42.054;24.546;2022-08-03T08:15:36;1.65;;;1.30;;
20022;SDS011;10172;42.054;24.546;2022-08-03T08:18:02;1.77;;;1.45;;
20022;SDS011;10172;42.054;24.546;2022-08-03T08:20:29;3.38;;;1.80;;
20022;SDS011;10172;42.054;24.546;2022-08-03T08:23:00;4.97;;;2.15;;
20022;SDS011;10172;42.054;24.546;2022-08-03T08:25:29;2.17;;;1.75;;
20022;SDS011;10172;42.054;24.546;2022-08-03T08:27:56;3.47;;;1.70;;
20022;SDS011;10172;42.054;24.546;2022-08-03T08:30:23;5.05;;;1.95;;
20022;SDS011;10172;42.054;24.546;2022-08-03T08:32:49;3.72;;;1.80;;
20022;SDS011;10172;42.054;24.546;2022-08-03T08:35:15;3.38;;;1.45;;
20022;SDS011;10172;42.054;24.546;2022-08-03T08:37:41;3.30;;;1.63;;
20022;SDS011;10172;42.054;24.546;2022-08-03T08:40:07;3.97;;;2.00;;
20022;SDS011;10172;42.054;24.546;2022-08-03T08:42:37;4.03;;;1.75;;
20022;SDS011;10172;42.054;24.546;2022-08-03T08:45:04;4.30;;;2.00;;
20022;SDS011;10172;42.054;24.546;2022-08-03T08:47:31;2.33;;;1.90;;
20022;SDS011;10172;42.054;24.546;2022-08-03T08:49:58;5.80;;;1.98;;
20022;SDS011;10172;42.054;24.546;2022-08-03T08:52:24;3.83;;;1.60;;
20022;SDS011;10172;42.054;24.546;2022-08-03T08:54:58;6.57;;;2.05;;
20022;SDS011;10172;42.054;24.546;2022-08-03T08:57:28;2.97;;;2.13;;
20022;SDS011;10172;42.054;24.546;2022-08-03T08:59:57;5.07;;;2.00;;
20022;SDS011;10172;42.054;24.546;2022-08-03T09:02:26;4.07;;;1.95;;
20022;SDS011;10172;42.054;24.546;2022-08-03T09:04:54;4.68;;;2.20;;
20022;SDS011;10172;42.054;24.546;2022-08-03T09:07:20;2.72;;;2.05;;
20022;SDS011;10172;42.054;24.546;2022-08-03T09:09:46;4.75;;;2.35;;
20022;SDS011;10172;42.054;24.546;2022-08-03T09:12:12;4.65;;;2.50;;
20022;SDS011;10172;42.054;24.546;2022-08-03T09:14:40;3.95;;;2.53;;
20022;SDS011;10172;42.054;24.546;2022-08-03T09:17:06;5.40;;;2.38;;
20022;SDS011;10172;42.054;24.546;2022-08-03T09:19:33;3.60;;;2.47;;
20022;SDS011;10172;42.054;24.546;2022-08-03T09:22:12;2.38;;;2.08;;
20022;SDS011;10172;42.054;24.546;2022-08-03T09:24:58;3.28;;;2.40;;
20022;SDS011;10172;42.054;24.546;2022-08-03T09:27:42;3.25;;;2.50;;
20022;SDS011;10172;42.054;24.546;2022-08-03T09:30:12;3.30;;;2.05;;
20022;SDS011;10172;42.054;24.546;2022-08-03T09:32:39;5.72;;;3.10;;
20022;SDS011;10172;42.054;24.546;2022-08-03T09:35:05;3.88;;;2.40;;
20022;SDS011;10172;42.054;24.546;2022-08-03T09:37:30;3.17;;;2.08;;
20022;SDS011;10172;42.054;24.546;2022-08-03T09:39:56;4.75;;;2.28;;
20022;SDS011;10172;42.054;24.546;2022-08-03T09:42:21;5.57;;;1.92;;
20022;SDS011;10172;42.054;24.546;2022-08-03T09:44:48;3.15;;;2.00;;
20022;SDS011;10172;42.054;24.546;2022-08-03T09:47:35;4.10;;;2.13;;
20022;SDS011;10172;42.054;24.546;2022-08-03T09:52:34;4.05;;;2.08;;
20022;SDS011;10172;42.054;24.546;2022-08-03T09:55:08;5.63;;;2.53;;
20022;SDS011;10172;42.054;24.546;2022-08-03T09:57:35;3.33;;;2.25;;
20022;SDS011;10172;42.054;24.546;2022-08-03T10:00:07;6.65;;;2.55;;
20022;SDS011;10172;42.054;24.546;2022-08-03T10:02:48;4.82;;;1.88;;
20022;SDS011;10172;42.054;24.546;2022-08-03T10:05:31;2.67;;;1.73;;
20022;SDS011;10172;42.054;24.546;2022-08-03T10:07:57;3.50;;;1.75;;
20022;SDS011;10172;42.054;24.546;2022-08-03T10:10:22;3.97;;;1.67;;
20022;SDS011;10172;42.054;24.546;2022-08-03T10:12:48;1.83;;;1.45;;
20022;SDS011;10172;42.054;24.546;2022-08-03T10:15:14;3.38;;;1.73;;
20022;SDS011;10172;42.054;24.546;2022-08-03T10:17:40;3.60;;;1.80;;
20022;SDS011;10172;42.054;24.546;2022-08-03T10:20:06;4.07;;;1.80;;
20022;SDS011;10172;42.054;24.546;2022-08-03T10:22:34;1.85;;;1.30;;
20022;SDS011;10172;42.054;24.546;2022-08-03T10:25:03;2.33;;;1.42;;
20022;SDS011;10172;42.054;24.546;2022-08-03T10:27:41;3.88;;;1.70;;
20022;SDS011;10172;42.054;24.546;2022-08-03T10:30:11;4.28;;;2.00;;
20022;SDS011;10172;42.054;24.546;2022-08-03T10:37:43;4.70;;;2.20;;
20022;SDS011;10172;42.054;24.546;2022-08-03T10:40:15;4.85;;;1.90;;
20022;SDS011;10172;42.054;24.546;2022-08-03T10:42:46;2.42;;;1.90;;
20022;SDS011;10172;42.054;24.546;2022-08-03T10:45:19;6.85;;;2.42;;
20022;SDS011;10172;42.054;24.546;2022-08-03T10:47:50;3.30;;;2.20;;
20022;SDS011;10172;42.054;24.546;2022-08-03T10:50:16;4.32;;;2.00;;
20022;SDS011;10172;42.054;24.546;2022-08-03T10:52:55;4.88;;;2.30;;
20022;SDS011;10172;42.054;24.546;2022-08-03T10:55:33;4.47;;;2.60;;
20022;SDS011;10172;42.054;24.546;2022-08-03T11:01:03;3.58;;;2.00;;
20022;SDS011;10172;42.054;24.546;2022-08-03T11:03:29;4.35;;;2.15;;
20022;SDS011;10172;42.054;24.546;2022-08-03T11:06:17;3.13;;;1.92;;
20022;SDS011;10172;42.054;24.546;2022-08-03T11:08:45;3.97;;;2.40;;
20022;SDS011;10172;42.054;24.546;2022-08-03T11:13:57;2.78;;;1.80;;
20022;SDS011;10172;42.054;24.546;2022-08-03T11:16:25;3.20;;;2.00;;
20022;SDS011;10172;42.054;24.546;2022-08-03T11:18:58;5.72;;;2.25;;
20022;SDS011;10172;42.054;24.546;2022-08-03T11:29:58;4.00;;;2.05;;
20022;SDS011;10172;42.054;24.546;2022-08-03T11:42:56;2.05;;;1.60;;
20022;SDS011;10172;42.054;24.546;2022-08-03T11:45:21;3.83;;;1.88;;
20022;SDS011;10172;42.054;24.546;2022-08-03T11:47:47;4.10;;;1.85;;
20022;SDS011;10172;42.054;24.546;2022-08-03T11:50:16;3.08;;;1.90;;
20022;SDS011;10172;42.054;24.546;2022-08-03T11:52:43;2.90;;;1.70;;
20022;SDS011;10172;42.054;24.546;2022-08-03T11:55:09;3.30;;;1.83;;
20022;SDS011;10172;42.054;24.546;2022-08-03T11:57:36;2.40;;;1.67;;
20022;SDS011;10172;42.054;24.546;2022-08-03T12:00:02;1.80;;;1.63;;
20022;SDS011;10172;42.054;24.546;2022-08-03T12:02:52;3.40;;;1.45;;
20022;SDS011;10172;42.054;24.546;2022-08-03T12:05:36;2.45;;;1.77;;
20022;SDS011;10172;42.054;24.546;2022-08-03T12:08:04;2.67;;;1.80;;
20022;SDS011;10172;42.054;24.546;2022-08-03T12:10:30;3.85;;;1.88;;
20022;SDS011;10172;42.054;24.546;2022-08-03T12:12:57;2.08;;;1.60;;
20022;SDS011;10172;42.054;24.546;2022-08-03T12:15:24;3.10;;;1.77;;
20022;SDS011;10172;42.054;24.546;2022-08-03T12:17:52;4.65;;;1.70;;
20022;SDS011;10172;42.054;24.546;2022-08-03T12:20:27;3.72;;;1.92;;
20022;SDS011;10172;42.054;24.546;2022-08-03T12:22:53;2.65;;;1.67;;
20022;SDS011;10172;42.054;24.546;2022-08-03T12:25:20;4.18;;;1.90;;
20022;SDS011;10172;42.054;24.546;2022-08-03T12:27:51;4.18;;;1.80;;
20022;SDS011;10172;42.054;24.546;2022-08-03T12:30:17;2.75;;;1.70;;
20022;SDS011;10172;42.054;24.546;2022-08-03T12:32:44;3.40;;;1.70;;
20022;SDS011;10172;42.054;24.546;2022-08-03T12:35:10;2.03;;;1.50;;
20022;SDS011;10172;42.054;24.546;2022-08-03T12:37:47;2.58;;;1.48;;
20022;SDS011;10172;42.054;24.546;2022-08-03T12:40:13;1.88;;;1.35;;
20022;SDS011;10172;42.054;24.546;2022-08-03T12:42:40;9.80;;;2.85;;
20022;SDS011;10172;42.054;24.546;2022-08-03T12:45:25;5.20;;;1.92;;
20022;SDS011;10172;42.054;24.546;2022-08-03T12:47:53;3.90;;;1.83;;
20022;SDS011;10172;42.054;24.546;2022-08-03T12:50:24;2.60;;;1.70;;
20022;SDS011;10172;42.054;24.546;2022-08-03T12:52:57;4.15;;;1.70;;
20022;SDS011;10172;42.054;24.546;2022-08-03T12:55:24;2.22;;;1.52;;
20022;SDS011;10172;42.054;24.546;2022-08-03T12:57:58;1.90;;;1.50;;
20022;SDS011;10172;42.054;24.546;2022-08-03T13:00:23;4.78;;;1.90;;
20022;SDS011;10172;42.054;24.546;2022-08-03T13:03:01;4.57;;;1.50;;
20022;SDS011;10172;42.054;24.546;2022-08-03T13:05:29;2.42;;;1.60;;
20022;SDS011;10172;42.054;24.546;2022-08-03T13:07:55;1.60;;;1.40;;
20022;SDS011;10172;42.054;24.546;2022-08-03T13:10:28;3.08;;;1.42;;
20022;SDS011;10172;42.054;24.546;2022-08-03T13:12:56;2.92;;;1.30;;
20022;SDS011;10172;42.054;24.546;2022-08-03T13:15:27;5.40;;;1.42;;
20022;SDS011;10172;42.054;24.546;2022-08-03T13:17:56;1.85;;;1.40;;
20022;SDS011;10172;42.054;24.546;2022-08-03T13:20:22;1.92;;;1.25;;
20022;SDS011;10172;42.054;24.546;2022-08-03T13:22:48;3.10;;;1.33;;
20022;SDS011;10172;42.054;24.546;2022-08-03T13:25:15;3.58;;;1.58;;
20022;SDS011;10172;42.054;24.546;2022-08-03T13:27:41;4.43;;;1.60;;
20022;SDS011;10172;42.054;24.546;2022-08-03T13:30:07;2.58;;;1.33;;
20022;SDS011;10172;42.054;24.546;2022-08-03T13:32:33;2.38;;;1.52;;
20022;SDS011;10172;42.054;24.546;2022-08-03T13:34:59;4.53;;;1.60;;
20022;SDS011;10172;42.054;24.546;2022-08-03T13:37:26;3.08;;;1.70;;
20022;SDS011;10172;42.054;24.546;2022-08-03T13:39:52;6.28;;;1.60;;
20022;SDS011;10172;42.054;24.546;2022-08-03T13:42:18;3.60;;;1.80;;
20022;SDS011;10172;42.054;24.546;2022-08-03T13:44:43;2.83;;;1.60;;
20022;SDS011;10172;42.054;24.546;2022-08-03T13:47:09;3.25;;;1.85;;
20022;SDS011;10172;42.054;24.546;2022-08-03T13:49:34;4.35;;;1.98;;
20022;SDS011;10172;42.054;24.546;2022-08-03T13:52:00;8.25;;;2.53;;
20022;SDS011;10172;42.054;24.546;2022-08-03T13:54:26;5.80;;;2.03;;
20022;SDS011;10172;42.054;24.546;2022-08-03T13:56:51;6.18;;;2.28;;
20022;SDS011;10172;42.054;24.546;2022-08-03T13:59:17;5.60;;;2.10;;
20022;SDS011;10172;42.054;24.546;2022-08-03T14:01:44;4.88;;;2.13;;
20022;SDS011;10172;42.054;24.546;2022-08-03T14:04:10;2.33;;;1.90;;
20022;SDS011;10172;42.054;24.546;2022-08-03T14:06:36;3.50;;;2.00;;
20022;SDS011;10172;42.054;24.546;2022-08-03T14:09:01;3.72;;;1.80;;
20022;SDS011;10172;42.054;24.546;2022-08-03T14:11:27;6.22;;;2.30;;
20022;SDS011;10172;42.054;24.546;2022-08-03T14:13:52;3.55;;;2.03;;
20022;SDS011;10172;42.054;24.546;2022-08-03T14:16:18;5.93;;;2.17;;
20022;SDS011;10172;42.054;24.546;2022-08-03T14:18:43;6.55;;;2.00;;
20022;SDS011;10172;42.054;24.546;2022-08-03T14:21:09;4.82;;;3.75;;
20022;SDS011;10172;42.054;24.546;2022-08-03T14:23:36;2.25;;;1.90;;
20022;SDS011;10172;42.054;24.546;2022-08-03T14:26:02;7.25;;;2.50;;
20022;SDS011;10172;42.054;24.546;2022-08-03T14:28:30;3.13;;;2.35;;
20022;SDS011;10172;42.054;24.546;2022-08-03T14:30:57;5.38;;;2.00;;
20022;SDS011;10172;42.054;24.546;2022-08-03T14:33:22;2.90;;;1.80;;
20022;SDS011;10172;42.054;24.546;2022-08-03T14:35:48;4.85;;;2.20;;
20022;SDS011;10172;42.054;24.546;2022-08-03T14:38:14;2.25;;;1.98;;
20022;SDS011;10172;42.054;24.546;2022-08-03T14:40:40;3.65;;;1.98;;
20022;SDS011;10172;42.054;24.546;2022-08-03T14:43:06;6.07;;;2.30;;
20022;SDS011;10172;42.054;24.546;2022-08-03T14:45:31;4.07;;;1.80;;
20022;SDS011;10172;42.054;24.546;2022-08-03T14:47:58;4.60;;;2.05;;
20022;SDS011;10172;42.054;24.546;2022-08-03T14:50:26;5.22;;;2.22;;
20022;SDS011;10172;42.054;24.546;2022-08-03T14:52:55;3.25;;;2.08;;
20022;SDS011;10172;42.054;24.546;2022-08-03T14:55:20;11.00;;;2.80;;
20022;SDS011;10172;42.054;24.546;2022-08-03T14:57:46;3.92;;;2.45;;
20022;SDS011;10172;42.054;24.546;2022-08-03T15:00:11;5.57;;;3.20;;
20022;SDS011;10172;42.054;24.546;2022-08-03T15:02:37;7.25;;;5.75;;
20022;SDS011;10172;42.054;24.546;2022-08-03T15:05:03;6.22;;;3.67;;
20022;SDS011;10172;42.054;24.546;2022-08-03T15:07:28;3.45;;;2.35;;
20022;SDS011;10172;42.054;24.546;2022-08-03T15:09:54;4.20;;;2.28;;
20022;SDS011;10172;42.054;24.546;2022-08-03T15:12:19;2.63;;;2.03;;
20022;SDS011;10172;42.054;24.546;2022-08-03T15:14:45;3.05;;;2.05;;
20022;SDS011;10172;42.054;24.546;2022-08-03T15:17:10;2.60;;;1.92;;
20022;SDS011;10172;42.054;24.546;2022-08-03T15:19:36;4.65;;;2.05;;
20022;SDS011;10172;42.054;24.546;2022-08-03T15:22:01;4.75;;;2.50;;
20022;SDS011;10172;42.054;24.546;2022-08-03T15:24:27;5.88;;;2.13;;
20022;SDS011;10172;42.054;24.546;2022-08-03T15:26:53;3.08;;;1.73;;
20022;SDS011;10172;42.054;24.546;2022-08-03T15:29:18;3.75;;;1.92;;
20022;SDS011;10172;42.054;24.546;2022-08-03T15:31:43;5.75;;;2.30;;